Terminal Aerodrome Forecast
Issued by NWS St Louis, MO

Home | Current Version | Previous Version | Text Only | Print | Product List | Glossary On
Versions: 1 2 3 4 5 6 7 8 9 10 11 12 13 14 15 16 17 18 19 20 21 22 23 24 25 26
435
FTUS43 KLSX 261501 AAB
TAFCOU
TAF AMD
KCOU 261501Z 2615/2712 26011KT 5SM BR OVC004
     FM261600 26008KT P6SM OVC007
     FM261800 25008KT P6SM BKN020
     FM262000 25009KT P6SM BKN040
     FM270600 VRB03KT 5SM -SHRA OVC030=

USA.gov is the U.S. government's official web portal to all federal, state and local government web resources and services.